createdAt,value
2016-10-31T00:00:30.986Z,1024.18
2016-10-31T00:01:12.717Z,1024.14
2016-10-31T00:03:12.574Z,1024.1
2016-10-31T00:05:07.387Z,1024.09
2016-10-31T00:05:49.106Z,1024.1
2016-10-31T00:06:30.848Z,1024.11
2016-10-31T00:08:25.511Z,1024
2016-10-31T00:09:07.324Z,1024.11
2016-10-31T00:09:49.008Z,1024.03
2016-10-31T00:10:30.742Z,1024.08
2016-10-31T00:11:12.437Z,1024.07
2016-10-31T00:11:54.198Z,1024.07
2016-10-31T00:12:35.928Z,1024.06
2016-10-31T00:13:17.603Z,1024.06
2016-10-31T00:13:59.307Z,1024.05
2016-10-31T00:14:40.937Z,1024.08
2016-10-31T00:15:22.672Z,1024.08
2016-10-31T00:16:04.484Z,1024.07
2016-10-31T00:16:46.149Z,1024.04
2016-10-31T00:17:27.958Z,1024.04
2016-10-31T00:18:09.645Z,1024.01
2016-10-31T00:18:51.391Z,1024
2016-10-31T00:19:33.050Z,1024.01
2016-10-31T00:20:14.743Z,1023.98
2016-10-31T00:20:56.438Z,1023.97
2016-10-31T00:22:51.289Z,1023.96
2016-10-31T00:23:33.040Z,1023.94
2016-10-31T00:24:14.698Z,1023.98
2016-10-31T00:24:56.389Z,1023.94
2016-10-31T00:25:38.008Z,1023.95
2016-10-31T00:26:19.670Z,1023.96
2016-10-31T00:27:01.344Z,1023.96
2016-10-31T00:27:43.019Z,1023.95
2016-10-31T00:29:43.065Z,1023.97
2016-10-31T00:30:24.795Z,1023.97
2016-10-31T00:31:06.565Z,1023.93
2016-10-31T00:31:48.236Z,1023.95
2016-10-31T00:32:29.983Z,1023.95
2016-10-31T00:33:11.727Z,1023.93
2016-10-31T00:33:53.479Z,1023.97
2016-10-31T00:34:35.188Z,1023.96
2016-10-31T00:35:16.851Z,1023.97
2016-10-31T00:39:26.932Z,1023.92
2016-10-31T00:40:08.716Z,1023.95
2016-10-31T00:42:39.762Z,1023.92
2016-10-31T00:43:21.482Z,1023.9
2016-10-31T00:44:03.215Z,1023.9
2016-10-31T00:44:44.922Z,1023.88
2016-10-31T00:45:26.698Z,1023.89
2016-10-31T00:46:08.440Z,1023.94
2016-10-31T00:46:49.940Z,1023.93
2016-10-31T00:47:31.551Z,1023.91
2016-10-31T00:48:13.265Z,1023.93
2016-10-31T00:48:54.941Z,1023.92
2016-10-31T00:49:36.532Z,1023.91
2016-10-31T00:51:31.343Z,1023.9
2016-10-31T00:52:13.058Z,1023.9
2016-10-31T00:54:33.759Z,1023.9
2016-10-31T00:55:15.493Z,1023.86
2016-10-31T00:57:35.975Z,1023.88
2016-10-31T00:58:17.726Z,1023.86
2016-10-31T01:00:32.962Z,1023.81
2016-10-31T01:01:13.975Z,1023.83
2016-10-31T01:01:55.681Z,1023.81
2016-10-31T01:03:55.765Z,1023.88
2016-10-31T01:04:37.284Z,1023.83
2016-10-31T01:06:32.060Z,1023.83
2016-10-31T01:07:13.679Z,1023.86
2016-10-31T01:09:34.395Z,1023.86
2016-10-31T01:10:16.018Z,1023.84
2016-10-31T01:10:57.871Z,1023.85
2016-10-31T01:11:39.423Z,1023.84
2016-10-31T01:12:21.151Z,1023.85
2016-10-31T01:13:02.937Z,1023.83
2016-10-31T01:13:44.634Z,1023.83
2016-10-31T01:15:59.973Z,1023.82
2016-10-31T01:16:41.813Z,1023.8
2016-10-31T01:17:23.401Z,1023.76
2016-10-31T01:18:05.218Z,1023.77
2016-10-31T01:18:46.931Z,1023.75
2016-10-31T01:19:28.672Z,1023.75
2016-10-31T01:20:10.414Z,1023.73
2016-10-31T01:22:41.653Z,1023.73
2016-10-31T01:25:12.754Z,1023.77
2016-10-31T01:25:54.260Z,1023.74
2016-10-31T01:26:35.742Z,1023.77
2016-10-31T01:28:30.461Z,1023.74
2016-10-31T01:29:12.114Z,1023.77
2016-10-31T01:29:53.803Z,1023.73
2016-10-31T01:30:35.426Z,1023.74
2016-10-31T01:32:56.019Z,1023.7
2016-10-31T01:33:37.877Z,1023.67
2016-10-31T01:36:08.974Z,1023.65
2016-10-31T01:36:50.731Z,1023.66
2016-10-31T01:37:32.552Z,1023.65
2016-10-31T01:38:14.210Z,1023.65
2016-10-31T01:38:55.889Z,1023.63
2016-10-31T01:41:26.928Z,1023.61
2016-10-31T01:43:42.236Z,1023.59
2016-10-31T01:44:23.837Z,1023.59
2016-10-31T01:46:39.235Z,1023.62
2016-10-31T01:47:20.846Z,1023.61
2016-10-31T01:48:02.493Z,1023.59
2016-10-31T01:50:17.841Z,1023.6
2016-10-31T01:50:59.616Z,1023.59
2016-10-31T01:53:15.002Z,1023.58
2016-10-31T01:53:56.789Z,1023.57
2016-10-31T01:54:38.474Z,1023.53
2016-10-31T01:55:20.200Z,1023.59
2016-10-31T01:57:20.086Z,1023.57
2016-10-31T01:58:01.643Z,1023.55
2016-10-31T01:58:43.260Z,1023.55
2016-10-31T01:59:24.932Z,1023.53
2016-10-31T02:00:06.166Z,1023.53
2016-10-31T02:00:46.690Z,1023.53
2016-10-31T02:01:27.219Z,1023.51
2016-10-31T02:02:07.760Z,1023.51
2016-10-31T02:02:48.300Z,1023.49
2016-10-31T02:03:28.829Z,1023.51
2016-10-31T02:04:09.363Z,1023.48
2016-10-31T02:04:49.893Z,1023.48
2016-10-31T02:05:30.427Z,1023.5
2016-10-31T02:06:10.991Z,1023.48
2016-10-31T02:06:51.521Z,1023.48
2016-10-31T02:07:32.050Z,1023.44
2016-10-31T02:08:12.594Z,1023.48
2016-10-31T02:08:53.142Z,1023.45
2016-10-31T02:09:33.679Z,1023.47
2016-10-31T02:10:14.221Z,1023.47
2016-10-31T02:10:54.751Z,1023.49
2016-10-31T02:11:35.277Z,1023.46
2016-10-31T02:12:15.815Z,1023.47
2016-10-31T02:12:56.362Z,1023.42
2016-10-31T02:13:36.922Z,1023.47
2016-10-31T02:14:17.446Z,1023.45
2016-10-31T02:14:57.991Z,1023.43
2016-10-31T02:15:38.538Z,1023.43
2016-10-31T02:16:19.078Z,1023.43
2016-10-31T02:16:59.602Z,1023.44
2016-10-31T02:17:40.122Z,1023.4
2016-10-31T02:18:20.658Z,1023.39
2016-10-31T02:19:01.198Z,1023.38
2016-10-31T02:19:41.742Z,1023.39
2016-10-31T02:20:22.291Z,1023.38
2016-10-31T02:21:02.837Z,1023.38
2016-10-31T02:21:43.357Z,1023.34
2016-10-31T02:22:23.903Z,1023.33
2016-10-31T02:23:04.431Z,1023.35
2016-10-31T02:23:44.971Z,1023.38
2016-10-31T02:24:25.512Z,1023.36
2016-10-31T02:25:06.054Z,1023.35
2016-10-31T02:25:46.592Z,1023.34
2016-10-31T02:26:27.132Z,1023.36
2016-10-31T02:27:07.649Z,1023.36
2016-10-31T02:27:48.189Z,1023.33
2016-10-31T02:28:28.722Z,1023.36
2016-10-31T02:29:09.257Z,1023.35
2016-10-31T02:29:49.793Z,1023.31
2016-10-31T02:30:30.329Z,1023.32
2016-10-31T02:31:10.861Z,1023.31
2016-10-31T02:31:51.482Z,1023.28
2016-10-31T02:32:32.010Z,1023.32
2016-10-31T02:33:12.559Z,1023.33
2016-10-31T02:33:53.103Z,1023.33
2016-10-31T02:34:33.641Z,1023.32
2016-10-31T02:35:14.162Z,1023.37
2016-10-31T02:35:54.687Z,1023.31
2016-10-31T02:36:35.222Z,1023.34
2016-10-31T02:37:15.763Z,1023.32
2016-10-31T02:37:56.305Z,1023.34
2016-10-31T02:38:36.835Z,1023.34
2016-10-31T02:39:17.366Z,1023.33
2016-10-31T02:39:57.905Z,1023.3
2016-10-31T02:40:38.433Z,1023.31
2016-10-31T02:41:18.980Z,1023.32
2016-10-31T02:41:59.537Z,1023.31
2016-10-31T02:42:40.127Z,1023.36
2016-10-31T02:43:20.655Z,1023.39
2016-10-31T02:44:01.195Z,1023.36
2016-10-31T02:44:41.737Z,1023.38
2016-10-31T02:45:22.278Z,1023.39
2016-10-31T02:46:02.830Z,1023.39
2016-10-31T02:46:43.378Z,1023.34
2016-10-31T02:47:23.914Z,1023.36
2016-10-31T02:48:04.457Z,1023.37
2016-10-31T02:48:44.980Z,1023.36
2016-10-31T02:49:25.509Z,1023.32
2016-10-31T02:50:06.063Z,1023.35
2016-10-31T02:50:46.594Z,1023.34
2016-10-31T02:51:27.142Z,1023.3
2016-10-31T02:52:07.680Z,1023.33
2016-10-31T02:52:48.218Z,1023.3
2016-10-31T02:53:28.735Z,1023.31
2016-10-31T02:54:09.289Z,1023.32
2016-10-31T02:54:49.820Z,1023.35
2016-10-31T02:55:30.364Z,1023.33
2016-10-31T02:56:10.898Z,1023.33
2016-10-31T02:56:51.434Z,1023.32
2016-10-31T02:57:31.971Z,1023.3
2016-10-31T02:58:12.494Z,1023.29
2016-10-31T02:58:53.022Z,1023.32
2016-10-31T02:59:33.566Z,1023.32
2016-10-31T03:00:14.090Z,1023.29
2016-10-31T03:00:54.637Z,1023.31
2016-10-31T03:01:35.176Z,1023.32
2016-10-31T03:02:15.717Z,1023.29
2016-10-31T03:02:56.252Z,1023.32
2016-10-31T03:03:36.791Z,1023.32
2016-10-31T03:04:17.324Z,1023.3
2016-10-31T03:04:57.856Z,1023.32
2016-10-31T03:05:38.405Z,1023.35
2016-10-31T03:06:18.953Z,1023.31
2016-10-31T03:06:59.496Z,1023.35
2016-10-31T03:07:40.032Z,1023.3
2016-10-31T03:08:20.574Z,1023.35
2016-10-31T03:09:01.104Z,1023.32
2016-10-31T03:09:41.646Z,1023.31
2016-10-31T03:10:22.178Z,1023.3
2016-10-31T03:11:02.717Z,1023.29
2016-10-31T03:11:43.258Z,1023.26
2016-10-31T03:12:23.808Z,1023.3
2016-10-31T03:13:04.347Z,1023.3
2016-10-31T03:13:44.889Z,1023.32
2016-10-31T03:14:25.428Z,1023.29
2016-10-31T03:15:05.959Z,1023.31
2016-10-31T03:15:46.502Z,1023.31
2016-10-31T03:16:27.038Z,1023.34
2016-10-31T03:17:07.582Z,1023.32
2016-10-31T03:17:48.127Z,1023.31
2016-10-31T03:18:28.667Z,1023.33
2016-10-31T03:19:09.220Z,1023.36
2016-10-31T03:19:49.760Z,1023.35
2016-10-31T03:20:30.305Z,1023.28
2016-10-31T03:21:10.840Z,1023.32
2016-10-31T03:21:51.373Z,1023.32
2016-10-31T03:22:31.911Z,1023.29
2016-10-31T03:23:12.445Z,1023.3
2016-10-31T03:23:52.974Z,1023.3
2016-10-31T03:24:33.520Z,1023.27
2016-10-31T03:25:14.055Z,1023.32
2016-10-31T03:25:54.612Z,1023.33
2016-10-31T03:26:35.149Z,1023.28
2016-10-31T03:27:15.685Z,1023.3
2016-10-31T03:27:56.202Z,1023.31
2016-10-31T03:28:36.743Z,1023.3
2016-10-31T03:29:17.275Z,1023.31
2016-10-31T03:29:57.823Z,1023.3
2016-10-31T03:30:38.365Z,1023.35
2016-10-31T03:31:18.907Z,1023.34
2016-10-31T03:31:59.439Z,1023.37
2016-10-31T03:32:39.974Z,1023.39
2016-10-31T03:33:20.498Z,1023.4
2016-10-31T03:34:01.035Z,1023.4
2016-10-31T03:34:41.584Z,1023.4
2016-10-31T03:35:22.130Z,1023.38
2016-10-31T03:36:02.658Z,1023.38
2016-10-31T03:36:43.189Z,1023.39
2016-10-31T03:37:23.726Z,1023.42
2016-10-31T03:38:04.256Z,1023.4
2016-10-31T03:38:44.801Z,1023.36
2016-10-31T03:39:25.339Z,1023.37
2016-10-31T03:40:05.888Z,1023.39
2016-10-31T03:40:46.418Z,1023.38
2016-10-31T03:41:26.963Z,1023.35
2016-10-31T03:42:07.491Z,1023.39
2016-10-31T03:42:48.028Z,1023.35
2016-10-31T03:43:28.549Z,1023.35
2016-10-31T03:44:09.092Z,1023.39
2016-10-31T03:44:49.635Z,1023.34
2016-10-31T03:45:30.176Z,1023.34
2016-10-31T03:46:10.713Z,1023.33
2016-10-31T03:46:51.242Z,1023.32
2016-10-31T03:47:31.769Z,1023.31
2016-10-31T03:48:12.325Z,1023.3
2016-10-31T03:48:52.847Z,1023.32
2016-10-31T03:49:33.387Z,1023.31
2016-10-31T03:50:13.925Z,1023.29
2016-10-31T03:50:54.469Z,1023.27
2016-10-31T03:51:34.989Z,1023.29
2016-10-31T03:52:15.533Z,1023.28
2016-10-31T03:52:56.065Z,1023.27
2016-10-31T03:53:36.606Z,1023.26
2016-10-31T03:54:17.148Z,1023.3
2016-10-31T03:54:57.684Z,1023.24
2016-10-31T03:55:38.234Z,1023.26
2016-10-31T03:56:18.779Z,1023.29
2016-10-31T03:56:59.305Z,1023.3
2016-10-31T03:57:39.835Z,1023.26
2016-10-31T03:58:20.369Z,1023.24
2016-10-31T03:59:00.907Z,1023.29
2016-10-31T03:59:41.442Z,1023.28
2016-10-31T04:00:21.990Z,1023.23
2016-10-31T04:01:02.530Z,1023.28
2016-10-31T04:01:43.068Z,1023.27
2016-10-31T04:02:23.596Z,1023.28
2016-10-31T04:03:04.131Z,1023.26
2016-10-31T04:03:44.663Z,1023.27
2016-10-31T04:04:25.203Z,1023.27
2016-10-31T04:05:05.746Z,1023.3
2016-10-31T04:05:46.284Z,1023.33
2016-10-31T04:06:26.808Z,1023.28
2016-10-31T04:07:07.362Z,1023.32
2016-10-31T04:07:47.946Z,1023.28
2016-10-31T04:08:28.478Z,1023.27
2016-10-31T04:09:09.022Z,1023.26
2016-10-31T04:09:49.553Z,1023.28
2016-10-31T04:10:30.090Z,1023.28
2016-10-31T04:11:10.632Z,1023.26
2016-10-31T04:11:51.182Z,1023.27
2016-10-31T04:12:31.706Z,1023.27
2016-10-31T04:13:12.246Z,1023.28
2016-10-31T04:13:52.764Z,1023.27
2016-10-31T04:14:33.308Z,1023.28
2016-10-31T04:15:13.841Z,1023.29
2016-10-31T04:15:54.386Z,1023.27
2016-10-31T04:16:34.921Z,1023.32
2016-10-31T04:17:15.460Z,1023.31
2016-10-31T04:17:55.996Z,1023.29
2016-10-31T04:18:36.543Z,1023.29
2016-10-31T04:19:17.082Z,1023.29
2016-10-31T04:19:57.614Z,1023.31
2016-10-31T04:20:38.159Z,1023.29
2016-10-31T04:21:18.690Z,1023.28
2016-10-31T04:21:59.233Z,1023.28
2016-10-31T04:22:39.780Z,1023.25
2016-10-31T04:23:20.324Z,1023.29
2016-10-31T04:24:00.854Z,1023.28
2016-10-31T04:24:41.397Z,1023.28
2016-10-31T04:25:21.930Z,1023.29
2016-10-31T04:26:02.454Z,1023.31
2016-10-31T04:26:42.995Z,1023.29
2016-10-31T04:27:23.533Z,1023.31
2016-10-31T04:28:04.076Z,1023.32
2016-10-31T04:28:44.620Z,1023.31
2016-10-31T04:29:25.164Z,1023.33
2016-10-31T04:30:05.702Z,1023.31
2016-10-31T04:30:46.242Z,1023.32
2016-10-31T04:31:26.772Z,1023.3
2016-10-31T04:32:07.301Z,1023.29
2016-10-31T04:32:47.842Z,1023.31
2016-10-31T04:33:28.379Z,1023.32
2016-10-31T04:34:08.919Z,1023.33
2016-10-31T04:34:49.456Z,1023.29
2016-10-31T04:35:29.998Z,1023.3
2016-10-31T04:36:10.525Z,1023.31
2016-10-31T04:36:51.057Z,1023.32
2016-10-31T04:37:31.597Z,1023.31
2016-10-31T04:38:12.137Z,1023.3
2016-10-31T04:38:52.682Z,1023.32
2016-10-31T04:39:33.220Z,1023.33
2016-10-31T04:40:13.753Z,1023.3
2016-10-31T04:40:54.288Z,1023.31
2016-10-31T04:41:34.810Z,1023.31
2016-10-31T04:42:15.357Z,1023.33
2016-10-31T04:42:55.901Z,1023.32
2016-10-31T04:43:36.442Z,1023.31
2016-10-31T04:44:16.990Z,1023.34
2016-10-31T04:44:57.541Z,1023.35
2016-10-31T04:45:38.082Z,1023.35
2016-10-31T04:46:18.624Z,1023.34
2016-10-31T04:46:59.169Z,1023.34
2016-10-31T04:47:39.717Z,1023.36
2016-10-31T04:48:20.261Z,1023.34
2016-10-31T04:49:00.799Z,1023.35
2016-10-31T04:49:41.339Z,1023.34
2016-10-31T04:50:21.886Z,1023.38
2016-10-31T04:51:02.418Z,1023.38
2016-10-31T04:51:42.956Z,1023.37
2016-10-31T04:52:23.502Z,1023.36
2016-10-31T04:53:04.049Z,1023.39
2016-10-31T04:53:44.600Z,1023.38
2016-10-31T04:54:25.141Z,1023.41
2016-10-31T04:55:05.709Z,1023.4
2016-10-31T04:55:46.256Z,1023.39
2016-10-31T04:56:26.803Z,1023.36
2016-10-31T04:57:07.349Z,1023.38
2016-10-31T04:57:47.883Z,1023.39
2016-10-31T04:58:28.418Z,1023.41
2016-10-31T04:59:08.949Z,1023.38
2016-10-31T04:59:49.479Z,1023.36
2016-10-31T05:00:30.019Z,1023.38
2016-10-31T05:01:10.560Z,1023.37
2016-10-31T05:01:51.105Z,1023.38
2016-10-31T05:02:31.633Z,1023.37
2016-10-31T05:03:12.159Z,1023.4
2016-10-31T05:03:52.695Z,1023.35
2016-10-31T05:04:33.230Z,1023.35
2016-10-31T05:05:13.765Z,1023.37
2016-10-31T05:05:54.310Z,1023.35
2016-10-31T05:06:34.851Z,1023.34
2016-10-31T05:07:15.391Z,1023.36
2016-10-31T05:07:55.922Z,1023.4
2016-10-31T05:08:36.454Z,1023.37
2016-10-31T05:09:16.984Z,1023.4
2016-10-31T05:09:57.523Z,1023.37
2016-10-31T05:10:38.049Z,1023.38
2016-10-31T05:11:18.606Z,1023.39
2016-10-31T05:11:59.178Z,1023.39
2016-10-31T05:12:39.728Z,1023.4
2016-10-31T05:13:20.269Z,1023.38
2016-10-31T05:14:00.808Z,1023.37
2016-10-31T05:14:41.347Z,1023.41
2016-10-31T05:15:21.890Z,1023.39
2016-10-31T05:16:02.415Z,1023.41
2016-10-31T05:16:42.954Z,1023.41
2016-10-31T05:17:23.493Z,1023.41
2016-10-31T05:18:04.028Z,1023.4
2016-10-31T05:18:44.573Z,1023.4
2016-10-31T05:19:25.110Z,1023.41
2016-10-31T05:20:05.640Z,1023.46
2016-10-31T05:20:46.163Z,1023.41
2016-10-31T05:21:26.707Z,1023.46
2016-10-31T05:22:07.244Z,1023.43
2016-10-31T05:22:47.786Z,1023.43
2016-10-31T05:23:28.324Z,1023.39
2016-10-31T05:24:08.864Z,1023.45
2016-10-31T05:24:49.405Z,1023.43
2016-10-31T05:25:29.946Z,1023.39
2016-10-31T05:26:10.493Z,1023.43
2016-10-31T05:26:51.009Z,1023.4
2016-10-31T05:27:31.539Z,1023.44
2016-10-31T05:28:12.082Z,1023.46
2016-10-31T05:28:52.628Z,1023.43
2016-10-31T05:29:33.179Z,1023.43
2016-10-31T05:30:13.922Z,1023.43
2016-10-31T05:30:54.444Z,1023.48
2016-10-31T05:31:34.963Z,1023.45
2016-10-31T05:32:15.500Z,1023.49
2016-10-31T05:32:56.042Z,1023.46
2016-10-31T05:33:36.583Z,1023.48
2016-10-31T05:34:17.137Z,1023.5
2016-10-31T05:34:57.699Z,1023.48
2016-10-31T05:35:38.260Z,1023.48
2016-10-31T05:36:18.792Z,1023.49
2016-10-31T05:36:59.333Z,1023.47
2016-10-31T05:37:39.869Z,1023.51
2016-10-31T05:38:20.386Z,1023.5
2016-10-31T05:39:00.931Z,1023.45
2016-10-31T05:39:41.462Z,1023.54
2016-10-31T05:40:21.985Z,1023.53
2016-10-31T05:41:02.521Z,1023.52
2016-10-31T05:41:43.039Z,1023.5
2016-10-31T05:42:23.572Z,1023.47
2016-10-31T05:43:04.116Z,1023.51
2016-10-31T05:43:44.647Z,1023.52
2016-10-31T05:44:25.196Z,1023.53
2016-10-31T05:45:05.735Z,1023.53
2016-10-31T05:45:46.274Z,1023.51
2016-10-31T05:46:26.819Z,1023.52
2016-10-31T05:47:07.325Z,1023.51
2016-10-31T05:47:47.868Z,1023.51
2016-10-31T05:48:28.399Z,1023.56
2016-10-31T05:49:08.934Z,1023.52
2016-10-31T05:49:49.464Z,1023.51
2016-10-31T05:50:29.994Z,1023.51
2016-10-31T05:51:10.525Z,1023.48
2016-10-31T05:51:51.071Z,1023.51
2016-10-31T05:52:31.604Z,1023.49
2016-10-31T05:53:12.146Z,1023.51
2016-10-31T05:53:52.682Z,1023.51
2016-10-31T05:54:33.225Z,1023.49
2016-10-31T05:55:13.748Z,1023.55
2016-10-31T05:55:54.279Z,1023.48
2016-10-31T05:56:34.820Z,1023.51
2016-10-31T05:57:15.360Z,1023.5
2016-10-31T05:57:55.893Z,1023.48
2016-10-31T05:58:36.435Z,1023.51
2016-10-31T05:59:16.957Z,1023.49
2016-10-31T05:59:57.498Z,1023.52
2016-10-31T06:00:38.042Z,1023.49
2016-10-31T06:01:18.570Z,1023.47
2016-10-31T06:01:59.104Z,1023.5
2016-10-31T06:02:39.657Z,1023.46
2016-10-31T06:03:20.180Z,1023.49
2016-10-31T06:04:00.712Z,1023.47
2016-10-31T06:04:41.246Z,1023.49
2016-10-31T06:05:21.792Z,1023.48
2016-10-31T06:06:02.319Z,1023.49
2016-10-31T06:06:42.864Z,1023.47
2016-10-31T06:07:23.387Z,1023.46
2016-10-31T06:08:04.007Z,1023.42
2016-10-31T06:08:44.458Z,1023.44
2016-10-31T06:09:24.991Z,1023.4
2016-10-31T06:10:05.535Z,1023.41
2016-10-31T06:10:46.078Z,1023.43
2016-10-31T06:11:26.618Z,1023.42
2016-10-31T06:12:07.161Z,1023.36
2016-10-31T06:12:47.706Z,1023.41
2016-10-31T06:13:28.260Z,1023.37
2016-10-31T06:14:08.799Z,1023.37
2016-10-31T06:14:49.337Z,1023.4
2016-10-31T06:15:29.857Z,1023.39
2016-10-31T06:16:10.392Z,1023.37
2016-10-31T06:16:50.931Z,1023.36
2016-10-31T06:17:31.474Z,1023.36
2016-10-31T06:18:12.025Z,1023.37
2016-10-31T06:18:52.563Z,1023.43
2016-10-31T06:19:33.136Z,1023.39
2016-10-31T06:20:13.676Z,1023.38
2016-10-31T06:20:54.219Z,1023.41
2016-10-31T06:21:34.762Z,1023.42
2016-10-31T06:22:15.290Z,1023.4
2016-10-31T06:22:55.812Z,1023.41
2016-10-31T06:23:36.349Z,1023.42
2016-10-31T06:24:16.885Z,1023.41
2016-10-31T06:24:57.429Z,1023.42
2016-10-31T06:25:37.999Z,1023.44
2016-10-31T06:26:18.535Z,1023.47
2016-10-31T06:26:59.083Z,1023.44
2016-10-31T06:27:39.627Z,1023.39
2016-10-31T06:28:20.164Z,1023.4
2016-10-31T06:29:00.693Z,1023.4
2016-10-31T06:29:41.273Z,1023.4
2016-10-31T06:30:21.813Z,1023.41
2016-10-31T06:31:02.350Z,1023.4
2016-10-31T06:31:42.896Z,1023.41
2016-10-31T06:32:23.428Z,1023.4
2016-10-31T06:33:03.979Z,1023.37
2016-10-31T06:33:44.507Z,1023.39
2016-10-31T06:34:25.044Z,1023.39
2016-10-31T06:35:05.585Z,1023.4
2016-10-31T06:35:46.131Z,1023.4
2016-10-31T06:36:26.665Z,1023.43
2016-10-31T06:37:07.209Z,1023.43
2016-10-31T06:37:47.747Z,1023.44
2016-10-31T06:38:28.281Z,1023.46
2016-10-31T06:39:08.814Z,1023.43
2016-10-31T06:39:49.347Z,1023.44
2016-10-31T06:40:29.928Z,1023.46
2016-10-31T06:41:10.466Z,1023.46
2016-10-31T06:41:51.005Z,1023.45
2016-10-31T06:42:31.549Z,1023.49
2016-10-31T06:43:12.083Z,1023.48
2016-10-31T06:43:52.635Z,1023.52
2016-10-31T06:44:33.175Z,1023.52
2016-10-31T06:45:13.714Z,1023.51
2016-10-31T06:45:54.242Z,1023.52
2016-10-31T06:46:34.769Z,1023.55
2016-10-31T06:47:15.304Z,1023.56
2016-10-31T06:47:55.841Z,1023.56
2016-10-31T06:48:36.381Z,1023.56
2016-10-31T06:49:16.904Z,1023.56
2016-10-31T06:49:57.438Z,1023.57
2016-10-31T06:50:37.968Z,1023.59
2016-10-31T06:51:18.508Z,1023.58
2016-10-31T06:51:59.053Z,1023.6
2016-10-31T06:52:39.598Z,1023.61
2016-10-31T06:53:20.135Z,1023.59
2016-10-31T06:54:00.685Z,1023.63
2016-10-31T06:54:41.229Z,1023.62
2016-10-31T06:55:21.756Z,1023.62
2016-10-31T06:56:02.293Z,1023.62
2016-10-31T06:56:42.823Z,1023.66
2016-10-31T06:57:23.364Z,1023.66
2016-10-31T06:58:03.909Z,1023.64
2016-10-31T06:58:44.451Z,1023.66
2016-10-31T06:59:24.987Z,1023.69
2016-10-31T07:00:05.578Z,1023.67
2016-10-31T07:00:46.107Z,1023.6
2016-10-31T07:01:26.605Z,1023.65
2016-10-31T07:02:07.133Z,1023.66
2016-10-31T07:02:47.666Z,1023.65
2016-10-31T07:03:28.198Z,1023.68
2016-10-31T07:04:08.740Z,1023.66
2016-10-31T07:04:49.252Z,1023.7
2016-10-31T07:05:29.802Z,1023.68
2016-10-31T07:06:10.321Z,1023.68
2016-10-31T07:06:50.866Z,1023.71
2016-10-31T07:07:31.381Z,1023.72
2016-10-31T07:08:11.956Z,1023.72
2016-10-31T07:08:52.473Z,1023.69
2016-10-31T07:09:33.007Z,1023.69
2016-10-31T07:10:13.537Z,1023.69
2016-10-31T07:10:54.069Z,1023.67
2016-10-31T07:11:34.614Z,1023.67
2016-10-31T07:12:15.157Z,1023.65
2016-10-31T07:12:55.698Z,1023.63
2016-10-31T07:13:36.249Z,1023.67
2016-10-31T07:14:16.794Z,1023.65
2016-10-31T07:14:57.339Z,1023.61
2016-10-31T07:15:37.868Z,1023.64
2016-10-31T07:16:18.401Z,1023.64
2016-10-31T07:16:58.940Z,1023.63
2016-10-31T07:17:39.476Z,1023.63
2016-10-31T07:18:20.024Z,1023.6
2016-10-31T07:19:00.576Z,1023.64
2016-10-31T07:19:41.072Z,1023.63
2016-10-31T07:20:21.596Z,1023.63
2016-10-31T07:21:02.132Z,1023.62
2016-10-31T07:21:42.628Z,1023.61
2016-10-31T07:22:23.147Z,1023.6
2016-10-31T07:23:03.673Z,1023.64
2016-10-31T07:23:44.220Z,1023.62
2016-10-31T07:24:24.743Z,1023.6
2016-10-31T07:25:05.269Z,1023.61
2016-10-31T07:25:45.797Z,1023.68
2016-10-31T07:26:26.329Z,1023.65
2016-10-31T07:27:06.874Z,1023.63
2016-10-31T07:27:47.414Z,1023.65
2016-10-31T07:28:27.967Z,1023.61
2016-10-31T07:29:08.507Z,1023.67
2016-10-31T07:29:49.061Z,1023.65
2016-10-31T07:30:29.559Z,1023.64
2016-10-31T07:31:10.082Z,1023.68
2016-10-31T07:31:50.615Z,1023.69
2016-10-31T07:32:31.125Z,1023.67
2016-10-31T07:33:11.683Z,1023.68
2016-10-31T07:33:52.250Z,1023.71
2016-10-31T07:34:32.827Z,1023.72
2016-10-31T07:35:13.349Z,1023.69
2016-10-31T07:35:53.875Z,1023.74
2016-10-31T07:36:34.412Z,1023.73
2016-10-31T07:37:14.936Z,1023.72
2016-10-31T07:37:55.484Z,1023.74
2016-10-31T07:38:36.014Z,1023.75
2016-10-31T07:39:16.553Z,1023.78
2016-10-31T07:39:57.066Z,1023.82
2016-10-31T07:40:37.601Z,1023.82
2016-10-31T07:41:18.137Z,1023.77
2016-10-31T07:41:58.678Z,1023.79
2016-10-31T07:42:39.219Z,1023.73
2016-10-31T07:43:19.766Z,1023.76
2016-10-31T07:44:00.312Z,1023.72
2016-10-31T07:44:40.864Z,1023.69
2016-10-31T07:45:21.389Z,1023.7
2016-10-31T07:46:01.912Z,1023.71
2016-10-31T07:46:42.453Z,1023.7
2016-10-31T07:47:23.001Z,1023.71
2016-10-31T07:48:03.545Z,1023.66
2016-10-31T07:48:44.066Z,1023.66
2016-10-31T07:49:24.605Z,1023.64
2016-10-31T07:50:05.146Z,1023.66
2016-10-31T07:50:45.670Z,1023.68
2016-10-31T07:51:26.196Z,1023.63
2016-10-31T07:52:06.738Z,1023.62
2016-10-31T07:52:47.273Z,1023.63
2016-10-31T07:53:27.803Z,1023.6
2016-10-31T07:54:08.333Z,1023.59
2016-10-31T07:54:48.854Z,1023.58
2016-10-31T07:55:29.401Z,1023.62
2016-10-31T07:56:09.946Z,1023.63
2016-10-31T07:56:50.491Z,1023.62
2016-10-31T07:57:31.027Z,1023.65
2016-10-31T07:58:11.561Z,1023.62
2016-10-31T07:58:52.093Z,1023.64
2016-10-31T07:59:32.636Z,1023.63
2016-10-31T08:00:13.170Z,1023.6
2016-10-31T08:00:53.707Z,1023.59
2016-10-31T08:01:34.248Z,1023.59
2016-10-31T08:02:14.769Z,1023.57
2016-10-31T08:02:55.296Z,1023.58
2016-10-31T08:03:35.832Z,1023.57
2016-10-31T08:04:16.355Z,1023.54
2016-10-31T08:04:56.894Z,1023.57
2016-10-31T08:05:37.540Z,1023.55
2016-10-31T08:06:18.048Z,1023.55
2016-10-31T08:06:58.582Z,1023.55
2016-10-31T08:07:39.123Z,1023.58
2016-10-31T08:08:19.656Z,1023.56
2016-10-31T08:09:00.195Z,1023.56
2016-10-31T08:09:40.741Z,1023.58
2016-10-31T08:10:21.296Z,1023.59
2016-10-31T08:11:01.827Z,1023.56
2016-10-31T08:11:42.364Z,1023.58
2016-10-31T08:12:22.890Z,1023.59
2016-10-31T08:13:03.422Z,1023.56
2016-10-31T08:13:43.964Z,1023.58
2016-10-31T08:14:24.512Z,1023.58
2016-10-31T08:15:05.040Z,1023.6
2016-10-31T08:15:45.593Z,1023.57
2016-10-31T08:16:26.121Z,1023.61
2016-10-31T08:17:06.659Z,1023.58
2016-10-31T08:17:47.193Z,1023.56
2016-10-31T08:18:27.718Z,1023.55
2016-10-31T08:19:08.256Z,1023.55
2016-10-31T08:19:48.807Z,1023.52
2016-10-31T08:20:29.344Z,1023.56
2016-10-31T08:21:09.888Z,1023.55
2016-10-31T08:21:50.433Z,1023.53
2016-10-31T08:22:30.963Z,1023.57
2016-10-31T08:23:11.493Z,1023.57
2016-10-31T08:23:52.040Z,1023.54
2016-10-31T08:24:32.577Z,1023.59
2016-10-31T08:25:13.121Z,1023.55
2016-10-31T08:25:53.678Z,1023.6
2016-10-31T08:26:34.223Z,1023.61
2016-10-31T08:27:14.776Z,1023.59
2016-10-31T08:27:55.319Z,1023.55
2016-10-31T08:28:35.862Z,1023.61
2016-10-31T08:29:16.405Z,1023.58
2016-10-31T08:29:56.946Z,1023.63
2016-10-31T08:30:37.477Z,1023.63
2016-10-31T08:31:18.084Z,1023.61
2016-10-31T08:31:58.573Z,1023.59
2016-10-31T08:32:39.117Z,1023.58
2016-10-31T08:33:19.665Z,1023.58
2016-10-31T08:34:00.186Z,1023.61
2016-10-31T08:34:40.732Z,1023.57
2016-10-31T08:35:21.283Z,1023.54
2016-10-31T08:36:01.832Z,1023.59
2016-10-31T08:36:42.388Z,1023.57
2016-10-31T08:37:22.934Z,1023.54
2016-10-31T08:38:03.480Z,1023.55
2016-10-31T08:38:44.025Z,1023.54
2016-10-31T08:39:24.568Z,1023.52
2016-10-31T08:40:05.106Z,1023.55
2016-10-31T08:40:45.653Z,1023.55
2016-10-31T08:41:26.197Z,1023.54
2016-10-31T08:42:06.728Z,1023.59
2016-10-31T08:42:47.271Z,1023.52
2016-10-31T08:43:27.814Z,1023.51
2016-10-31T08:44:08.350Z,1023.54
2016-10-31T08:44:48.897Z,1023.53
2016-10-31T08:45:29.439Z,1023.52
2016-10-31T08:46:09.994Z,1023.54
2016-10-31T08:46:50.536Z,1023.56
2016-10-31T08:47:31.086Z,1023.56
2016-10-31T08:48:11.633Z,1023.56
2016-10-31T08:48:52.179Z,1023.56
2016-10-31T08:49:32.716Z,1023.55
2016-10-31T08:50:13.245Z,1023.52
2016-10-31T08:50:53.787Z,1023.53
2016-10-31T08:51:34.328Z,1023.52
2016-10-31T08:52:14.869Z,1023.51
2016-10-31T08:52:55.428Z,1023.5
2016-10-31T08:53:35.977Z,1023.48
2016-10-31T08:54:16.522Z,1023.53
2016-10-31T08:54:57.065Z,1023.5
2016-10-31T08:55:37.612Z,1023.48